createdAt,value
2023-01-29T00:02:16.059Z,99272.34
2023-01-29T00:04:42.796Z,99299.69
2023-01-29T00:07:09.366Z,99268.16
2023-01-29T00:09:36.080Z,99257.34
2023-01-29T00:12:02.718Z,99287.81
2023-01-29T00:14:29.482Z,99301.84
2023-01-29T00:16:56.108Z,99269.25
2023-01-29T00:19:23.212Z,99292.13
2023-01-29T00:21:49.732Z,99308.59
2023-01-29T00:24:16.689Z,99310.34
2023-01-29T00:26:43.399Z,99296.47
2023-01-29T00:29:10.437Z,99286.69
2023-01-29T00:31:37.189Z,99314.94
2023-01-29T00:34:03.896Z,99299.81
2023-01-29T00:36:30.547Z,99244.28
2023-01-29T00:38:59.278Z,99306.28
2023-01-29T00:41:49.491Z,99304.63
2023-01-29T00:44:34.737Z,99313.91
2023-01-29T00:47:01.694Z,99298.88
2023-01-29T00:49:30.066Z,99320.16
2023-01-29T00:52:17.044Z,99307.47
2023-01-29T00:54:43.669Z,99328.09
2023-01-29T00:57:10.201Z,99322.81
2023-01-29T00:59:37.532Z,99329.84
2023-01-29T01:02:23.024Z,99302.78
2023-01-29T01:04:49.913Z,99311.03
2023-01-29T01:07:17.127Z,99329.00
2023-01-29T01:10:02.293Z,99290.78
2023-01-29T01:12:29.440Z,99337.84
2023-01-29T01:14:55.951Z,99320.75
2023-01-29T01:17:22.751Z,99336.16
2023-01-29T01:19:49.444Z,99282.59
2023-01-29T01:22:16.347Z,99337.84
2023-01-29T01:24:44.132Z,99324.41
2023-01-29T01:27:10.720Z,99325.16
2023-01-29T01:29:37.363Z,99345.88
2023-01-29T01:32:04.348Z,99322.84
2023-01-29T01:34:30.929Z,99332.72
2023-01-29T01:36:57.641Z,99339.72
2023-01-29T01:39:25.289Z,99344.16
2023-01-29T01:41:53.663Z,99339.81
2023-01-29T01:44:53.677Z,99342.53
2023-01-29T01:47:37.662Z,99285.50
2023-01-29T01:50:14.243Z,99267.59
2023-01-29T01:52:47.349Z,99325.16
2023-01-29T01:55:19.052Z,99336.41
2023-01-29T01:57:51.110Z,99298.03
2023-01-29T02:00:19.512Z,99304.72
2023-01-29T02:03:06.078Z,99304.34
2023-01-29T02:05:53.280Z,99316.41
2023-01-29T02:08:48.656Z,99309.50
2023-01-29T02:11:15.995Z,99300.91
2023-01-29T02:13:43.374Z,99310.25
2023-01-29T02:16:09.953Z,99317.25
2023-01-29T02:18:38.129Z,99311.13
2023-01-29T02:21:29.290Z,99300.72
2023-01-29T02:24:14.953Z,99295.31
2023-01-29T02:27:19.569Z,99298.88
2023-01-29T02:29:52.221Z,99296.22
2023-01-29T02:32:54.346Z,99295.41
2023-01-29T02:35:31.965Z,99297.16
2023-01-29T02:38:08.025Z,99294.53
2023-01-29T02:41:02.700Z,99271.56
2023-01-29T02:43:55.395Z,99276.66
2023-01-29T02:46:40.465Z,99288.41
2023-01-29T02:49:16.516Z,99294.53
2023-01-29T02:51:54.668Z,99281.34
2023-01-29T02:54:46.916Z,99269.69
2023-01-29T02:57:22.664Z,99288.41
2023-01-29T02:59:56.036Z,99286.84
2023-01-29T03:02:33.044Z,99269.06
2023-01-29T03:05:03.677Z,99262.97
2023-01-29T03:07:46.347Z,99287.03
2023-01-29T03:10:43.813Z,99299.97
2023-01-29T03:13:18.511Z,99306.09
2023-01-29T03:15:54.910Z,99314.94
2023-01-29T03:18:45.855Z,99275.88
2023-01-29T03:21:37.273Z,99317.56
2023-01-29T03:24:25.133Z,99298.78
2023-01-29T03:27:11.633Z,99316.84
2023-01-29T03:30:03.304Z,99319.63
2023-01-29T03:32:59.204Z,99306.63
2023-01-29T03:35:36.522Z,99321.34
2023-01-29T03:38:07.431Z,99323.28
2023-01-29T03:40:51.028Z,99331.88
2023-01-29T03:43:39.005Z,99323.09
2023-01-29T03:46:22.420Z,99320.47
2023-01-29T03:49:14.478Z,99318.69
2023-01-29T03:51:53.180Z,99309.06
2023-01-29T03:55:01.213Z,99313.50
2023-01-29T03:57:36.490Z,99301.69
2023-01-29T04:00:21.249Z,99308.25
2023-01-29T04:03:19.583Z,99305.66
2023-01-29T04:06:24.344Z,99304.81
2023-01-29T04:09:07.388Z,99298.72
2023-01-29T04:11:42.835Z,99297.00
2023-01-29T04:14:10.711Z,99286.44
2023-01-29T04:16:41.921Z,99282.00
2023-01-29T04:19:21.623Z,99286.50
2023-01-29T04:21:53.051Z,99289.94
2023-01-29T04:24:19.697Z,99285.59
2023-01-29T04:27:01.304Z,99281.19
2023-01-29T04:29:43.359Z,99280.31
2023-01-29T04:33:03.141Z,99275.03
2023-01-29T04:35:40.787Z,99273.31
2023-01-29T04:38:35.297Z,99263.66
2023-01-29T04:41:21.810Z,99254.03
2023-01-29T04:44:06.742Z,99244.41
2023-01-29T04:46:49.507Z,99237.72
2023-01-29T04:49:21.884Z,99241.78
2023-01-29T04:52:03.756Z,99230.53
2023-01-29T04:54:55.260Z,99240.06
2023-01-29T04:57:35.960Z,99244.50
2023-01-29T05:00:08.549Z,99228.84
2023-01-29T05:02:39.266Z,99240.06
2023-01-29T05:05:08.374Z,99221.88
2023-01-29T05:07:38.509Z,99234.78
2023-01-29T05:10:09.495Z,99214.91
2023-01-29T05:12:38.059Z,99240.06
2023-01-29T05:15:11.600Z,99250.56
2023-01-29T05:17:38.358Z,99256.75
2023-01-29T05:20:06.032Z,99243.56
2023-01-29T05:22:32.936Z,99249.69
2023-01-29T05:24:59.579Z,99235.91
2023-01-29T05:27:53.970Z,99254.03
2023-01-29T05:30:20.588Z,99261.94
2023-01-29T05:32:47.117Z,99254.97
2023-01-29T05:35:14.325Z,99262.03
2023-01-29T05:37:40.976Z,99262.13
2023-01-29T05:40:08.805Z,99261.09
2023-01-29T05:42:35.516Z,99253.59
2023-01-29T05:45:02.211Z,99267.22
2023-01-29T05:47:28.775Z,99255.63
2023-01-29T05:49:55.455Z,99262.19
2023-01-29T05:52:22.022Z,99269.00
2023-01-29T05:54:49.022Z,99266.72
2023-01-29T05:57:15.604Z,99283.13
2023-01-29T05:59:42.196Z,99283.97
2023-01-29T06:02:08.748Z,99274.63
2023-01-29T06:04:35.576Z,99275.81
2023-01-29T06:07:03.419Z,99280.75
2023-01-29T06:09:29.981Z,99245.03
2023-01-29T06:11:57.316Z,99269.72
2023-01-29T06:14:23.939Z,99263.00
2023-01-29T06:16:50.449Z,99292.91
2023-01-29T06:19:18.251Z,99312.38
2023-01-29T06:21:44.753Z,99292.13
2023-01-29T06:24:11.377Z,99310.66
2023-01-29T06:26:37.996Z,99303.69
2023-01-29T06:29:04.620Z,99301.06
2023-01-29T06:31:39.844Z,99302.06
2023-01-29T06:34:07.978Z,99302.94
2023-01-29T06:36:34.798Z,99305.59
2023-01-29T06:39:01.379Z,99308.44
2023-01-29T06:41:28.613Z,99297.19
2023-01-29T06:43:55.417Z,99317.19
2023-01-29T06:46:21.958Z,99308.44
2023-01-29T06:48:48.612Z,99312.31
2023-01-29T06:51:15.137Z,99316.50
2023-01-29T06:53:43.376Z,99316.50
2023-01-29T06:56:11.241Z,99318.28
2023-01-29T06:58:38.271Z,99317.50
2023-01-29T07:01:05.163Z,99309.69
2023-01-29T07:03:32.047Z,99314.97
2023-01-29T07:05:58.745Z,99288.41
2023-01-29T07:08:25.366Z,99311.53
2023-01-29T07:10:52.001Z,99324.81
2023-01-29T07:13:18.612Z,99325.75
2023-01-29T07:15:45.149Z,99315.44
2023-01-29T07:18:14.650Z,99322.28
2023-01-29T07:20:42.522Z,99294.16
2023-01-29T07:23:14.321Z,99330.28
2023-01-29T07:25:41.627Z,99287.50
2023-01-29T07:28:08.312Z,99325.06
2023-01-29T07:30:35.735Z,99319.19
2023-01-29T07:33:08.074Z,99325.16
2023-01-29T07:35:42.468Z,99315.44
2023-01-29T07:38:10.857Z,99313.06
2023-01-29T07:40:37.804Z,99324.31
2023-01-29T07:43:07.018Z,99326.25
2023-01-29T07:45:36.280Z,99341.88
2023-01-29T07:48:07.684Z,99320.44
2023-01-29T07:50:35.368Z,99323.94
2023-01-29T07:53:02.524Z,99346.31
2023-01-29T07:55:29.161Z,99356.88
2023-01-29T07:57:57.233Z,99340.34
2023-01-29T08:00:24.451Z,99324.19
2023-01-29T08:02:51.111Z,99353.31
2023-01-29T08:05:17.916Z,99345.41
2023-01-29T08:07:49.248Z,99322.47
2023-01-29T08:10:20.797Z,99319.31
2023-01-29T08:15:11.301Z,99362.13
2023-01-29T08:17:52.556Z,99366.47
2023-01-29T08:20:24.193Z,99367.41
2023-01-29T08:22:59.151Z,99355.88
2023-01-29T08:25:26.183Z,99365.19
2023-01-29T08:27:53.087Z,99379.03
2023-01-29T08:30:19.855Z,99391.97
2023-01-29T08:32:46.450Z,99392.75
2023-01-29T08:35:14.058Z,99372.13
2023-01-29T08:37:40.596Z,99390.13
2023-01-29T08:40:13.333Z,99380.59
2023-01-29T08:42:41.373Z,99371.81
2023-01-29T08:45:08.882Z,99371.50
2023-01-29T08:47:35.440Z,99373.19
2023-01-29T08:50:02.301Z,99375.78
2023-01-29T08:52:28.952Z,99374.91
2023-01-29T08:54:55.555Z,99373.28
2023-01-29T08:57:22.194Z,99373.13
2023-01-29T08:59:48.677Z,99359.97
2023-01-29T09:02:15.309Z,99348.97
2023-01-29T09:04:41.958Z,99352.34
2023-01-29T09:07:08.510Z,99355.84
2023-01-29T09:09:35.205Z,99364.44
2023-01-29T09:12:01.862Z,99367.94
2023-01-29T09:14:28.376Z,99361.91
2023-01-29T09:16:55.043Z,99369.72
2023-01-29T09:19:21.564Z,99354.38
2023-01-29T09:21:49.512Z,99368.00
2023-01-29T09:24:16.465Z,99372.34
2023-01-29T09:26:43.067Z,99366.41
2023-01-29T09:29:10.922Z,99361.97
2023-01-29T09:31:37.798Z,99363.56
2023-01-29T09:34:04.461Z,99348.63
2023-01-29T09:36:31.131Z,99336.53
2023-01-29T09:38:57.808Z,99322.16
2023-01-29T09:41:38.588Z,99281.88
2023-01-29T09:44:32.633Z,99329.25
2023-01-29T09:47:04.978Z,99322.19
2023-01-29T09:49:35.975Z,99315.97
2023-01-29T09:52:07.269Z,99293.75
2023-01-29T09:54:47.041Z,99318.63
2023-01-29T09:57:22.716Z,99308.06
2023-01-29T09:59:49.346Z,99309.31
2023-01-29T10:02:34.489Z,99313.34
2023-01-29T10:05:34.534Z,99307.13
2023-01-29T10:08:38.976Z,99309.78
2023-01-29T10:11:26.432Z,99309.00
2023-01-29T10:14:02.564Z,99299.19
2023-01-29T10:16:59.369Z,99290.06
2023-01-29T10:20:01.198Z,99293.19
2023-01-29T10:22:33.556Z,99294.59
2023-01-29T10:25:09.929Z,99288.84
2023-01-29T10:27:40.387Z,99283.72
2023-01-29T10:30:20.407Z,99275.31
2023-01-29T10:32:49.293Z,99269.44
2023-01-29T10:35:31.647Z,99267.09
2023-01-29T10:38:02.207Z,99251.69
2023-01-29T10:40:38.169Z,99242.50
2023-01-29T10:43:13.068Z,99238.78
2023-01-29T10:46:17.881Z,99238.25
2023-01-29T10:48:58.272Z,99222.94
2023-01-29T10:51:40.133Z,99219.16
2023-01-29T10:54:18.607Z,99232.16
2023-01-29T10:57:09.781Z,99217.03
2023-01-29T10:59:56.622Z,99191.69
2023-01-29T11:02:23.194Z,99200.09
2023-01-29T11:04:49.779Z,99186.88
2023-01-29T11:07:19.534Z,99183.22
2023-01-29T11:10:11.442Z,99169.13
2023-01-29T11:12:39.277Z,99133.41
2023-01-29T11:15:11.974Z,99156.69
2023-01-29T11:17:38.784Z,99152.28
2023-01-29T11:20:25.266Z,99151.69
2023-01-29T11:22:58.129Z,99153.47
2023-01-29T11:25:25.295Z,99132.56
2023-01-29T11:27:57.022Z,99146.00
2023-01-29T11:30:29.764Z,99134.09
2023-01-29T11:33:05.432Z,99137.06
2023-01-29T11:35:33.372Z,99133.50
2023-01-29T11:38:08.770Z,99136.13
2023-01-29T11:40:39.765Z,99136.19
2023-01-29T11:43:30.805Z,99120.31
2023-01-29T11:45:59.832Z,99122.09
2023-01-29T11:48:40.820Z,99116.91
2023-01-29T11:51:10.347Z,99113.16
2023-01-29T11:53:44.286Z,99102.72
2023-01-29T11:56:20.053Z,99105.94
2023-01-29T11:58:48.465Z,99059.81
2023-01-29T12:01:18.426Z,99092.75
2023-01-29T12:03:52.110Z,99067.19
2023-01-29T12:06:23.462Z,99079.00
2023-01-29T12:08:57.290Z,99078.66
2023-01-29T12:11:28.009Z,99100.31
2023-01-29T12:13:57.124Z,99084.03
2023-01-29T12:16:31.177Z,99091.56
2023-01-29T12:19:18.587Z,99067.19
2023-01-29T12:21:51.025Z,99097.69
2023-01-29T12:24:23.416Z,99095.13
2023-01-29T12:26:53.262Z,99105.59
2023-01-29T12:30:00.815Z,99100.31
2023-01-29T12:33:09.143Z,99096.00
2023-01-29T12:35:43.537Z,99088.63
2023-01-29T12:38:21.971Z,99096.06
2023-01-29T12:40:55.287Z,99053.78
2023-01-29T12:43:27.512Z,99084.19
2023-01-29T12:45:55.381Z,99091.72
2023-01-29T12:48:28.027Z,99102.28
2023-01-29T12:50:59.377Z,99105.78
2023-01-29T12:53:35.114Z,99098.81
2023-01-29T12:56:18.485Z,99085.81
2023-01-29T12:58:49.631Z,99085.53
2023-01-29T13:01:28.972Z,99078.50
2023-01-29T13:04:06.320Z,99063.03
2023-01-29T13:06:42.528Z,99068.78
2023-01-29T13:09:17.107Z,99064.44
2023-01-29T13:11:53.330Z,99067.03
2023-01-29T13:14:24.164Z,99049.06
2023-01-29T13:16:55.482Z,99067.09
2023-01-29T13:19:29.302Z,99042.19
2023-01-29T13:22:00.316Z,99059.19
2023-01-29T13:24:37.145Z,99036.25
2023-01-29T13:27:03.975Z,99055.38
2023-01-29T13:29:31.270Z,99064.53
2023-01-29T13:32:00.892Z,99070.66
2023-01-29T13:34:49.619Z,99060.56
2023-01-29T13:37:19.111Z,99037.63
2023-01-29T13:39:53.181Z,99023.78
2023-01-29T13:42:47.381Z,99061.22
2023-01-29T13:45:22.768Z,99055.13
2023-01-29T13:47:51.713Z,99048.25
2023-01-29T13:50:45.941Z,99033.72
2023-01-29T13:53:26.409Z,99038.22
2023-01-29T13:55:53.336Z,99050.19
2023-01-29T13:58:31.758Z,99055.28
2023-01-29T14:01:01.225Z,99005.44
2023-01-29T14:03:45.122Z,99059.78
2023-01-29T14:06:40.402Z,99048.31
2023-01-29T14:09:38.835Z,99055.28
2023-01-29T14:12:25.463Z,99047.47
2023-01-29T14:14:55.481Z,99039.56
2023-01-29T14:17:25.619Z,99022.88
2023-01-29T14:20:03.002Z,99017.03
2023-01-29T14:22:33.195Z,99032.59
2023-01-29T14:25:04.689Z,99012.22
2023-01-29T14:27:32.396Z,99035.31
2023-01-29T14:30:02.038Z,99038.69
2023-01-29T14:32:29.578Z,99031.75
2023-01-29T14:35:10.557Z,99034.47
2023-01-29T14:37:41.443Z,99012.31
2023-01-29T14:40:30.228Z,99037.19
2023-01-29T14:43:07.740Z,99021.91
2023-01-29T14:45:41.748Z,99039.81
2023-01-29T14:48:20.386Z,99031.09
2023-01-29T14:50:52.057Z,99037.28
2023-01-29T14:53:43.042Z,99038.22
2023-01-29T14:56:26.380Z,99041.78
2023-01-29T14:59:03.269Z,99032.34
2023-01-29T15:01:37.871Z,99027.78
2023-01-29T15:04:19.144Z,99009.69
2023-01-29T15:06:53.004Z,98986.56
2023-01-29T15:09:37.821Z,99008.56
2023-01-29T15:12:21.000Z,99018.06
2023-01-29T15:14:53.574Z,99016.28
2023-01-29T15:17:53.011Z,99018.06
2023-01-29T15:20:27.378Z,99017.31
2023-01-29T15:22:54.309Z,99013.00
2023-01-29T15:25:21.636Z,98999.88
2023-01-29T15:27:49.408Z,99003.38
2023-01-29T15:30:20.299Z,98994.72
2023-01-29T15:32:48.345Z,98998.28
2023-01-29T15:35:20.837Z,98999.22
2023-01-29T15:37:59.916Z,98990.66
2023-01-29T15:40:27.319Z,99004.56
2023-01-29T15:42:53.853Z,99016.03
2023-01-29T15:45:32.168Z,99009.09
2023-01-29T15:48:08.286Z,99002.13
2023-01-29T15:50:40.458Z,99001.25
2023-01-29T15:53:13.644Z,98946.00
2023-01-29T15:55:40.550Z,98992.63
2023-01-29T15:58:17.455Z,98979.38
2023-01-29T16:00:53.468Z,98982.34
2023-01-29T16:03:23.827Z,98982.13
2023-01-29T16:05:52.431Z,98975.56
2023-01-29T16:10:42.154Z,98982.34
2023-01-29T16:13:36.958Z,98979.13
2023-01-29T16:16:05.910Z,98987.59
2023-01-29T16:18:39.497Z,98980.63
2023-01-29T16:21:16.361Z,98981.56
2023-01-29T16:23:48.223Z,98973.84
2023-01-29T16:26:25.831Z,98977.41
2023-01-29T16:28:52.766Z,98900.97
2023-01-29T16:31:31.199Z,98955.69
2023-01-29T16:34:05.817Z,98979.63
2023-01-29T16:36:32.738Z,98984.38
2023-01-29T16:39:02.476Z,98991.41
2023-01-29T16:41:35.958Z,98955.81
2023-01-29T16:44:23.562Z,98990.59
2023-01-29T16:46:53.349Z,98986.25
2023-01-29T16:49:26.074Z,98992.34
2023-01-29T16:51:54.266Z,98994.97
2023-01-29T16:54:23.854Z,98992.44
2023-01-29T16:56:53.977Z,98995.06
2023-01-29T16:59:32.633Z,98988.97
2023-01-29T17:02:00.005Z,98998.63
2023-01-29T17:04:27.623Z,98982.00
2023-01-29T17:06:57.310Z,98985.56
2023-01-29T17:09:28.620Z,98990.75
2023-01-29T17:11:58.452Z,98986.69
2023-01-29T17:14:29.723Z,98986.41
2023-01-29T17:17:05.994Z,98967.66
2023-01-29T17:19:33.186Z,98972.66
2023-01-29T17:21:59.988Z,98971.03
2023-01-29T17:24:29.839Z,98960.34
2023-01-29T17:26:57.442Z,98967.97
2023-01-29T17:29:28.513Z,98965.44
2023-01-29T17:31:56.069Z,98951.59
2023-01-29T17:34:24.084Z,98964.59
2023-01-29T17:36:50.724Z,98932.31
2023-01-29T17:39:20.422Z,98954.06
2023-01-29T17:41:52.512Z,98945.38
2023-01-29T17:44:19.528Z,98948.88
2023-01-29T17:46:47.346Z,98947.34
2023-01-29T17:49:32.572Z,98957.44
2023-01-29T17:51:59.808Z,98955.47
2023-01-29T17:54:26.306Z,98947.66
2023-01-29T17:56:54.240Z,98950.06
2023-01-29T17:59:27.666Z,98945.81
2023-01-29T18:01:55.356Z,98941.22
2023-01-29T18:04:22.232Z,98940.44
2023-01-29T18:09:23.138Z,98939.50
2023-01-29T18:11:50.280Z,98938.59
2023-01-29T18:14:17.688Z,98930.84
2023-01-29T18:16:45.047Z,98928.16
2023-01-29T18:19:27.571Z,98935.09
2023-01-29T18:21:54.467Z,98936.88
2023-01-29T18:24:21.173Z,98923.03
2023-01-29T18:26:48.856Z,98921.34
2023-01-29T18:29:15.481Z,98930.78
2023-01-29T18:31:42.249Z,98923.97
2023-01-29T18:34:08.841Z,98934.34
2023-01-29T18:36:35.660Z,98919.47
2023-01-29T18:39:02.226Z,98920.41
2023-01-29T18:41:29.509Z,98902.69
2023-01-29T18:43:56.089Z,98922.94
2023-01-29T18:46:24.345Z,98920.56
2023-01-29T18:48:51.042Z,98913.34
2023-01-29T18:51:17.922Z,98906.75
2023-01-29T18:53:50.169Z,98913.19
2023-01-29T18:56:17.129Z,98906.09
2023-01-29T18:58:52.018Z,98906.22
2023-01-29T19:01:22.775Z,98906.03
2023-01-29T19:03:49.387Z,98907.72
2023-01-29T19:06:16.008Z,98895.94
2023-01-29T19:08:43.791Z,98892.56
2023-01-29T19:11:12.433Z,98904.25
2023-01-29T19:13:42.822Z,98892.88
2023-01-29T19:16:10.810Z,98891.19
2023-01-29T19:18:37.723Z,98880.75
2023-01-29T19:21:15.078Z,98873.84
2023-01-29T19:23:43.039Z,98885.13
2023-01-29T19:26:10.334Z,98879.03
2023-01-29T19:28:37.003Z,98864.63
2023-01-29T19:31:03.817Z,98867.06
2023-01-29T19:33:30.512Z,98874.69
2023-01-29T19:35:58.183Z,98879.28
2023-01-29T19:38:25.146Z,98890.66
2023-01-29T19:40:52.326Z,98864.78
2023-01-29T19:43:19.297Z,98844.91
2023-01-29T19:45:51.106Z,98859.72
2023-01-29T19:48:22.096Z,98877.50
2023-01-29T19:51:01.061Z,98831.50
2023-01-29T19:53:29.211Z,98867.84
2023-01-29T19:56:02.863Z,98868.56
2023-01-29T19:58:30.628Z,98864.25
2023-01-29T20:00:58.959Z,98862.63
2023-01-29T20:03:26.646Z,98866.59
2023-01-29T20:05:53.328Z,98859.25
2023-01-29T20:08:20.061Z,98869.34
2023-01-29T20:10:51.453Z,98867.56
2023-01-29T20:13:18.351Z,98845.88
2023-01-29T20:15:46.796Z,98834.47
2023-01-29T20:18:14.320Z,98803.09
2023-01-29T20:20:47.881Z,98861.63
2023-01-29T20:23:31.846Z,98844.38
2023-01-29T20:26:03.362Z,98827.50
2023-01-29T20:28:30.023Z,98852.97
2023-01-29T20:30:58.259Z,98845.44
2023-01-29T20:33:25.550Z,98796.91
2023-01-29T20:36:04.132Z,98806.56
2023-01-29T20:41:19.500Z,98825.66
2023-01-29T20:43:47.304Z,98848.72
2023-01-29T20:46:14.359Z,98850.44
2023-01-29T20:48:42.178Z,98823.84
2023-01-29T20:51:13.055Z,98840.06
2023-01-29T20:53:41.140Z,98834.78
2023-01-29T20:56:08.264Z,98834.78
2023-01-29T20:58:35.990Z,98834.78
2023-01-29T21:01:11.653Z,98812.59
2023-01-29T21:03:39.373Z,98825.66
2023-01-29T21:06:09.712Z,98819.63
2023-01-29T21:08:37.757Z,98808.38
2023-01-29T21:11:08.686Z,98827.00
2023-01-29T21:13:35.465Z,98828.75
2023-01-29T21:16:02.403Z,98822.66
2023-01-29T21:18:29.825Z,98822.66
2023-01-29T21:20:56.481Z,98814.75
2023-01-29T21:23:23.326Z,98796.09
2023-01-29T21:25:49.933Z,98811.28
2023-01-29T21:28:17.038Z,98807.78
2023-01-29T21:30:46.402Z,98788.69
2023-01-29T21:33:13.305Z,98787.97
2023-01-29T21:35:39.949Z,98763.41
2023-01-29T21:38:06.603Z,98792.09
2023-01-29T21:40:33.580Z,98758.41
2023-01-29T21:43:12.365Z,98766.56
2023-01-29T21:45:39.829Z,98776.28
2023-01-29T21:48:07.499Z,98782.41
2023-01-29T21:50:35.123Z,98759.50
2023-01-29T21:53:01.787Z,98764.16
2023-01-29T21:55:28.757Z,98764.16
2023-01-29T21:57:55.344Z,98752.75
2023-01-29T22:00:22.396Z,98760.22
2023-01-29T22:02:50.101Z,98751.56
2023-01-29T22:05:19.692Z,98737.84
2023-01-29T22:07:47.656Z,98700.25
2023-01-29T22:10:15.481Z,98741.03
2023-01-29T22:12:42.493Z,98750.06
2023-01-29T22:15:09.756Z,98753.47
2023-01-29T22:17:39.180Z,98746.31
2023-01-29T22:20:07.420Z,98722.06
2023-01-29T22:24:56.488Z,98714.16
2023-01-29T22:27:23.296Z,98721.38
2023-01-29T22:29:49.884Z,98716.03
2023-01-29T22:32:16.561Z,98715.06
2023-01-29T22:34:43.117Z,98705.41
2023-01-29T22:37:09.767Z,98656.66
2023-01-29T22:39:36.407Z,98669.47
2023-01-29T22:42:03.056Z,98700.78
2023-01-29T22:44:29.616Z,98683.41
2023-01-29T22:46:56.313Z,98674.06
2023-01-29T22:49:23.228Z,98659.22
2023-01-29T22:52:10.001Z,98678.69
2023-01-29T22:54:38.753Z,98656.69
2023-01-29T22:57:05.697Z,98673.41
2023-01-29T23:01:55.692Z,98668.91
2023-01-29T23:04:22.545Z,98658.09
2023-01-29T23:06:52.321Z,98645.09
2023-01-29T23:09:19.226Z,98674.91
2023-01-29T23:11:46.178Z,98629.97
2023-01-29T23:14:12.782Z,98628.75
2023-01-29T23:16:39.384Z,98652.88
2023-01-29T23:19:06.009Z,98612.94
2023-01-29T23:21:32.899Z,98631.16
2023-01-29T23:24:00.660Z,98576.47
2023-01-29T23:26:48.786Z,98597.44
2023-01-29T23:29:15.931Z,98646.59
2023-01-29T23:31:42.660Z,98617.63
2023-01-29T23:34:09.325Z,98617.53
2023-01-29T23:36:35.878Z,98602.69
2023-01-29T23:39:02.549Z,98616.66
2023-01-29T23:41:29.075Z,98574.00
2023-01-29T23:43:55.679Z,98602.56
2023-01-29T23:46:22.243Z,98595.81
2023-01-29T23:48:48.910Z,98596.25
2023-01-29T23:51:15.482Z,98585.81
2023-01-29T23:53:42.261Z,98569.63
2023-01-29T23:56:10.743Z,98577.91
2023-01-29T23:58:37.755Z,98562.38
